Flight Track Log - Related Links

Times and Time Zones

All times are in EDT time to prevent confusion due to time zone crossing. See the LXJ342 flight status page for this flight to view local times or setup timezone preferences in your user account.

Time Position Orientation Groundspeed Altitude Reporting Facility
EDT Latitude Longitude Course Direction KTS MPH feet Rate Location/Type
Thu 01:42:55 PM 36.0611 -115.1786 219° Southwest 191 220 3,400  Level Los Angeles Center
Thu 01:44:16 PM 36.0003 -115.2386 219° Southwest 264 304 6,800 2,821 Climbing Los Angeles Center
Thu 01:45:09 PM 35.9381 -115.2881 213° Southwest 279 321 9,700 2,832 Climbing Los Angeles Center
Thu 01:46:21 PM 35.8908 -115.1861 120° Southeast 314 361 12,700 2,239 Climbing Los Angeles Center
Thu 01:47:23 PM 35.8836 -115.0661 94° East 344 396 14,700 1,935 Climbing Los Angeles Center
Thu 01:48:25 PM 35.8753 -114.9344 94° East 373 429 16,700 1,887 Climbing Los Angeles Center
Thu 01:49:27 PM 35.8681 -114.8008 94° East 388 447 18,600 1,887 Climbing Los Angeles Center
Thu 01:50:29 PM 35.8592 -114.6644 95° East 398 458 20,600 1,935 Climbing Los Angeles Center
Thu 01:51:31 PM 35.8297 -114.5350 106° East 403 464 22,600 1,935 Climbing Los Angeles Center
Thu 01:52:33 PM 35.7514 -114.3975 125° Southeast 407 468 24,600 1,839 Climbing Los Angeles Center
Thu 01:53:35 PM 35.6869 -114.2797 124° Southeast 413 475 26,400 1,824 Climbing Los Angeles Center
Thu 01:54:38 PM 35.6228 -114.1619 124° Southeast 413 475 28,400 1,824 Climbing Los Angeles Center
Thu 01:55:40 PM 35.5617 -114.0461 123° Southeast 411 473 30,200 1,368 Climbing Los Angeles Center
Thu 01:56:54 PM 35.4872 -113.9064 123° Southeast 408 470 31,500 1,235 Climbing Los Angeles Center
Thu 01:57:56 PM 35.4094 -113.7619 123° Southeast 422 486 33,000 1,452 Climbing Los Angeles Center
Thu 01:58:58 PM 35.3456 -113.6456 124° Southeast 419 482 34,500 960 Climbing Los Angeles Center
Thu 02:00:01 PM 35.2814 -113.5281 124° Southeast 418 481 35,000 240 Climbing Los Angeles Center
Thu 02:01:03 PM 35.2142 -113.4039 124° Southeast 438 504 35,000  Level Los Angeles Center
Thu 02:02:05 PM 35.1442 -113.2786 124° Southeast 452 520 35,000 145 Level Los Angeles Center
Thu 02:03:07 PM 35.0603 -113.1258 124° Southeast 459 528 35,300 1,009 Climbing Los Angeles Center
Thu 02:03:52 PM 35.0075 -113.0272 123° Southeast 449 517 36,800 953 Climbing Albuquerque Center
Thu 02:04:54 PM 34.9411 -112.9081 124° Southeast 435 501 37,000 97 Climbing Albuquerque Center
Thu 02:05:56 PM 34.8722 -112.7850 124° Southeast 440 506 37,000  Level Albuquerque Center
Thu 02:06:58 PM 34.8139 -112.6492 118° Southeast 452 520 37,000  Level Albuquerque Center
Thu 02:08:00 PM 34.7561 -112.5128 117° Southeast 457 526 37,000  Level Albuquerque Center
Thu 02:09:02 PM 34.6856 -112.3500 118° Southeast 458 527 37,000  Level Albuquerque Center
Thu 02:10:04 PM 34.6306 -112.2239 118° Southeast 458 527 37,000  Level Albuquerque Center
Thu 02:11:06 PM 34.5711 -112.0872 118° Southeast 458 527 37,000  Level Albuquerque Center
Thu 02:12:07 PM 34.5114 -111.9500 118° Southeast 459 528 37,000  Level Albuquerque Center
Thu 02:13:09 PM 34.4394 -111.7861 118° Southeast 457 526 37,000  Level Albuquerque Center
Thu 02:14:11 PM 34.3792 -111.6494 118° Southeast 457 526 37,000 387 Level Albuquerque Center
Thu 02:15:13 PM 34.3186 -111.5136 118° Southeast 456 525 37,800 968 Climbing Albuquerque Center
Thu 02:16:15 PM 34.2614 -111.3842 118° Southeast 447 514 39,000 581 Climbing Albuquerque Center
Thu 02:17:17 PM 34.2042 -111.2564 118° Southeast 436 502 39,000  Level Albuquerque Center
Thu 02:18:18 PM 34.1450 -111.1244 118° Southeast 442 509 39,000  Level Albuquerque Center
Thu 02:19:20 PM 34.0839 -110.9886 118° Southeast 454 522 39,000  Level Albuquerque Center
Thu 02:20:22 PM 34.0239 -110.8528 118° Southeast 457 526 39,000  Level Albuquerque Center
Thu 02:21:24 PM 33.9500 -110.6908 119° Southeast 459 528 39,000  Level Albuquerque Center
Thu 02:22:26 PM 33.8881 -110.5550 119° Southeast 461 531 39,000  Level Albuquerque Center
Thu 02:23:27 PM 33.8264 -110.4200 119° Southeast 462 532 39,000  Level Albuquerque Center
Thu 02:24:29 PM 33.7636 -110.2850 119° Southeast 462 532 39,000  Level Albuquerque Center
Thu 02:25:31 PM 33.7017 -110.1492 119° Southeast 463 533 39,000  Level Albuquerque Center
Thu 02:26:33 PM 33.6372 -110.0103 119° Southeast 464 534 39,000 195 Level Albuquerque Center
Thu 02:27:34 PM 33.5739 -109.8753 119° Southeast 467 537 39,400 683 Climbing Albuquerque Center
Thu 02:28:36 PM 33.5147 -109.7456 119° Southeast 452 520 40,400 774 Climbing Albuquerque Center
Thu 02:29:38 PM 33.4394 -109.5986 122° Southeast 436 502 41,000 290 Climbing Albuquerque Center
Thu 02:30:40 PM 33.3783 -109.4700 120° Southeast 442 509 41,000  Level Albuquerque Center
Thu 02:31:41 PM 33.3183 -109.3394 119° Southeast 447 514 41,000  Level Albuquerque Center
Thu 02:32:43 PM 33.2556 -109.2067 119° Southeast 456 525 41,000  Level Albuquerque Center
Thu 02:33:45 PM 33.1975 -109.0722 117° Southeast 456 525 41,000  Level Albuquerque Center
Thu 02:34:47 PM 33.1344 -108.9403 120° Southeast 460 529 41,000  Level Albuquerque Center
Thu 02:35:49 PM 33.0703 -108.8083 120° Southeast 461 531 41,000  Level Albuquerque Center
Thu 02:36:50 PM 32.9953 -108.6483 119° Southeast 460 529 41,000  Level Albuquerque Center
Thu 02:37:52 PM 32.9281 -108.5200 122° Southeast 461 531 41,000  Level Albuquerque Center
Thu 02:38:54 PM 32.8664 -108.3883 119° Southeast 459 528 41,000  Level Albuquerque Center
Thu 02:39:56 PM 32.8022 -108.2572 120° Southeast 459 528 41,000  Level Albuquerque Center
Thu 02:40:57 PM 32.7378 -108.1253 120° Southeast 461 531 41,000  Level Albuquerque Center
Thu 02:41:59 PM 32.6739 -107.9969 121° Southeast 457 526 41,000  Level Albuquerque Center
Thu 02:43:01 PM 32.6103 -107.8669 120° Southeast 457 526 41,000  Level Albuquerque Center
Thu 02:44:03 PM 32.5339 -107.7122 120° Southeast 456 525 41,000  Level Albuquerque Center
Thu 02:45:04 PM 32.4706 -107.5850 121° Southeast 453 521 41,000  Level Albuquerque Center
Thu 02:46:06 PM 32.4031 -107.4486 120° Southeast 456 525 41,000  Level Albuquerque Center
Thu 02:47:08 PM 32.3394 -107.3183 120° Southeast 458 527 41,000  Level Albuquerque Center
Thu 02:48:09 PM 32.2686 -107.1792 121° Southeast 459 528 41,000  Level Albuquerque Center
Thu 02:49:11 PM 32.2072 -107.0478 119° Southeast 459 528 41,000  Level Albuquerque Center
Thu 02:50:13 PM 32.1397 -106.9153 121° Southeast 465 535 41,000  Level Albuquerque Center
Thu 02:51:14 PM 32.0750 -106.7872 121° Southeast 460 529 41,000  Level Albuquerque Center
Thu 02:52:16 PM 32.0092 -106.6592 121° Southeast 460 529 41,000  Level Albuquerque Center
Thu 02:53:18 PM 31.9442 -106.5317 121° Southeast 457 526 41,000  Level Albuquerque Center
Thu 02:54:20 PM 31.8692 -106.3853 121° Southeast 467 537 41,000  Level Albuquerque Center
Thu 02:55:21 PM 31.8081 -106.2542 119° Southeast 463 533 41,000  Level Albuquerque Center
Thu 02:56:23 PM 31.7744 -106.1111 105° East 446 513 41,000  Level Albuquerque Center
Thu 02:57:25 PM 31.7389 -105.9697 106° East 450 518 41,000  Level Albuquerque Center
Thu 02:58:27 PM 31.7028 -105.8283 107° East 451 519 41,000 -49 Level Albuquerque Center
Thu 02:59:28 PM 31.6603 -105.6578 106° East 454 522 40,900  Descending Albuquerque Center
Thu 03:00:30 PM 31.6244 -105.5150 106° East 456 525 41,000 48 Climbing Albuquerque Center
Thu 03:01:32 PM 31.5894 -105.3728 106° East 454 522 41,000  Level Albuquerque Center
Thu 03:02:34 PM 31.5522 -105.2314 107° East 453 521 41,000  Level Albuquerque Center
Thu 03:03:35 PM 31.5172 -105.0889 106° East 453 521 41,000  Level Albuquerque Center
Thu 03:04:37 PM 31.4800 -104.9489 107° East 450 518 41,000  Level Albuquerque Center
Thu 03:05:39 PM 31.4444 -104.8083 106° East 449 517 41,000  Level Albuquerque Center
Thu 03:06:41 PM 31.4072 -104.6675 107° East 449 517 41,000  Level Albuquerque Center
Thu 03:07:43 PM 31.3703 -104.5267 107° East 451 519 41,000  Level Albuquerque Center
Thu 03:08:44 PM 31.3264 -104.3606 107° East 447 514 41,000  Level Albuquerque Center
Thu 03:09:46 PM 31.2897 -104.2222 107° East 445 512 41,000  Level Albuquerque Center
Thu 03:10:48 PM 31.2522 -104.0850 108° East 444 511 41,000  Level Albuquerque Center
Thu 03:11:50 PM 31.2156 -103.9472 107° East 444 511 41,000  Level Albuquerque Center
Thu 03:12:52 PM 31.1781 -103.8094 108° East 445 512 41,000  Level Albuquerque Center
Thu 03:13:54 PM 31.1408 -103.6725 108° East 443 510 41,000  Level Albuquerque Center
Thu 03:14:56 PM 31.1042 -103.5353 107° East 444 511 41,000  Level Albuquerque Center
Thu 03:15:57 PM 31.0603 -103.3708 107° East 443 510 41,000  Level Albuquerque Center
Thu 03:16:59 PM 31.0225 -103.2336 108° East 444 511 41,000  Level Albuquerque Center
Thu 03:18:01 PM 30.9881 -103.1106 108° East 442 509 41,000  Level Albuquerque Center
Thu 03:19:03 PM 30.9428 -102.9464 108° East 444 511 41,000  Level Albuquerque Center
Thu 03:20:05 PM 30.9081 -102.8086 106° East 445 512 41,000  Level Albuquerque Center
Thu 03:21:07 PM 30.8725 -102.6719 107° East 444 511 41,000  Level Albuquerque Center
Thu 03:22:09 PM 30.8369 -102.5356 107° East 443 510 41,000  Level Albuquerque Center
Thu 03:23:10 PM 30.8017 -102.3994 107° East 443 510 41,000  Level Albuquerque Center
Thu 03:24:12 PM 30.7667 -102.2625 107° East 443 510 41,000  Level Albuquerque Center
Thu 03:25:14 PM 30.7278 -102.1161 107° East 443 510 41,000  Level Houston Center
Thu 03:26:16 PM 30.6928 -101.9800 107° East 442 509 41,000  Level Houston Center
Thu 03:27:18 PM 30.6558 -101.8442 108° East 442 509 41,000  Level Houston Center
Thu 03:28:21 PM 30.6125 -101.6819 107° East 440 506 41,000  Level Houston Center
Thu 03:29:23 PM 30.5764 -101.5472 107° East 439 505 41,000  Level Houston Center
Thu 03:30:25 PM 30.5389 -101.4122 108° East 440 506 41,000  Level Houston Center
Thu 03:31:27 PM 30.5033 -101.2769 107° East 439 505 41,000  Level Houston Center
Thu 03:32:29 PM 30.4664 -101.1422 108° East 439 505 41,000 -242 Level Houston Center
Thu 03:33:31 PM 30.4219 -100.9800 108° East 441 507 40,500 -1,161 Descending Houston Center
Thu 03:34:33 PM 30.3842 -100.8403 107° East 452 520 38,600 -1,824 Descending Houston Center
Thu 03:35:36 PM 30.3472 -100.7081 108° East 435 501 36,700 -1,824 Descending Houston Center
Thu 03:36:38 PM 30.3119 -100.5778 107° East 425 489 34,800 -1,839 Descending Houston Center
Thu 03:37:40 PM 30.2750 -100.4433 108° East 433 498 32,900 -1,887 Descending Houston Center
Thu 03:38:42 PM 30.2381 -100.3103 108° East 431 496 30,900 -1,887 Descending Houston Center
Thu 03:39:44 PM 30.2019 -100.1761 107° East 429 494 29,000 -1,839 Descending Houston Center
Thu 03:40:46 PM 30.1628 -100.0425 109° East 430 495 27,100 -2,177 Descending Houston Center
Thu 03:41:48 PM 30.1178 -99.8850 108° East 427 491 24,500 -2,208 Descending Houston Center
Thu 03:42:51 PM 30.0808 -99.7575 108° East 419 482 22,500 -1,920 Descending Houston Center
Thu 03:43:53 PM 30.0447 -99.6331 109° East 411 473 20,500 -1,984 Descending Houston Center
Thu 03:44:55 PM 30.0083 -99.5081 109° East 412 474 18,400 -1,935 Descending Houston Center
Thu 03:45:57 PM 29.9731 -99.3836 108° East 407 468 16,500 -2,036 Descending Houston Center
Thu 03:46:47 PM 29.9383 -99.2669 109° East 397 457 14,600 -2,093 Descending Houston Center
Thu 03:47:23 PM 29.9153 -99.1947 110° East 388 447 13,500 -1,865 Descending Houston Center
Thu 03:48:01 PM 29.8914 -99.1275 112° Southeast 381 438 12,300 -1,800 Descending Houston Center
Thu 03:49:03 PM 29.8489 -99.0219 115° Southeast 358 412 10,500 -1,440 Descending Houston Center
Thu 03:50:06 PM 29.8025 -98.9344 121° Southeast 288 331 9,300 -1,440 Descending Houston Center
Thu 03:51:08 PM 29.7633 -98.8606 121° Southeast 273 314 7,500 -1,935 Descending Houston Center
Thu 03:52:10 PM 29.7206 -98.7794 121° Southeast 274 315 5,300 -1,694 Descending Houston Center
Thu 03:53:12 PM 29.6828 -98.7058 121° Southeast 269 310 4,000 -1,113 Descending Houston Center
Thu 03:54:14 PM 29.6419 -98.6283 121° Southeast 264 304 3,000 -629 Descending Houston Center
Thu 03:55:16 PM 29.6083 -98.5706 124° Southeast 224 258 2,700 -484 Descending Houston Center
Thu 03:56:18 PM 29.5806 -98.5339 131° Southeast 149 171 2,000 -677 Descending Houston Center
Thu 03:57:20 PM 29.5556 -98.5003 131° Southeast 140 161 1,300 -528 Descending Houston Center
Thu 03:58:23 PM 29.5339 -98.4717 131° Southeast 140 161 900 -381 Descending Houston Center
Thu 04:00:00 PM 29.5333 -98.4667 120° Southeast  Level FlightAware Approximate
Thu 04:07:00 PM 29.5340 -98.4691 120° Southeast  Level Estimated

Login

Don't have an account? Register now (free) for customized features, flight alerts, and more!